Time;durP1;ratioP1;P1;durP2;ratioP2;P2;SDS_P1;SDS_P2;PMS_P1;PMS_P2;Temp;Humidity;BMP_temperature;BMP_pressure;BME280_temperature;BME280_humidity;BME280_pressure;Samples;Min_cycle;Max_cycle;Signal;HPM_P1;HPM_P2
2021/11/18 00:02:01;;;;;;;17.53;10.23;;;9.60;99.90;;;;;;5014976;28;20170;-81
2021/11/18 00:04:27;;;;;;;16.80;9.40;;;9.60;99.90;;;;;;4997072;28;20609;-80
2021/11/18 00:06:53;;;;;;;19.83;11.57;;;9.60;99.90;;;;;;5014355;28;20228;-81
2021/11/18 00:09:20;;;;;;;21.07;10.40;;;9.60;99.90;;;;;;5014863;28;20202;-81
2021/11/18 00:11:47;;;;;;;16.65;10.57;;;9.60;99.90;;;;;;4996976;28;20171;-81
2021/11/18 00:14:13;;;;;;;14.45;9.50;;;9.50;99.90;;;;;;5013767;28;20245;-81
2021/11/18 00:16:40;;;;;;;14.90;10.00;;;9.50;99.90;;;;;;5013173;28;20570;-81
2021/11/18 00:19:06;;;;;;;25.92;11.15;;;9.60;99.90;;;;;;4996513;28;20178;-82
2021/11/18 00:21:35;;;;;;;21.27;9.80;;;9.50;99.90;;;;;;4996121;28;20553;-82
2021/11/18 00:24:02;;;;;;;17.48;10.48;;;9.50;99.90;;;;;;5013603;28;20590;-81
2021/11/18 00:26:30;;;;;;;16.90;9.65;;;9.50;99.90;;;;;;5013058;28;20235;-82
2021/11/18 00:28:56;;;;;;;18.52;10.45;;;9.50;99.90;;;;;;5013596;28;20201;-82
2021/11/18 00:31:27;;;;;;;13.77;9.10;;;9.50;99.90;;;;;;5013438;28;20158;-81
2021/11/18 00:33:53;;;;;;;17.73;9.82;;;9.50;99.90;;;;;;4995564;28;20248;-82
2021/11/18 00:36:20;;;;;;;23.42;10.55;;;9.50;99.90;;;;;;5018071;28;20436;-81
2021/11/18 00:38:47;;;;;;;16.35;9.32;;;9.50;99.90;;;;;;5013515;28;20170;-81
2021/11/18 00:41:15;;;;;;;21.55;10.35;;;9.50;99.90;;;;;;4995537;28;20182;-81
2021/11/18 00:43:41;;;;;;;20.58;10.43;;;9.50;99.90;;;;;;5012415;28;20629;-81
2021/11/18 00:46:08;;;;;;;16.10;10.23;;;9.50;99.90;;;;;;4995114;28;20177;-80
2021/11/18 00:48:33;;;;;;;15.03;9.50;;;9.50;99.90;;;;;;5013099;28;20682;-80
2021/11/18 00:51:03;;;;;;;18.80;10.60;;;9.50;99.90;;;;;;5013262;28;20561;-81
2021/11/18 00:53:30;;;;;;;14.68;10.15;;;9.40;99.90;;;;;;4995055;28;20190;-81
2021/11/18 00:55:56;;;;;;;17.55;11.23;;;9.40;99.90;;;;;;5012750;28;20177;-81
2021/11/18 00:58:24;;;;;;;15.93;10.70;;;9.50;99.90;;;;;;4995191;28;20220;-81
2021/11/18 01:00:50;;;;;;;16.20;11.05;;;9.40;99.90;;;;;;5013298;28;20522;-81
2021/11/18 01:03:20;;;;;;;19.85;12.13;;;9.50;99.90;;;;;;4995297;28;20523;-80
2021/11/18 01:05:49;;;;;;;14.70;10.18;;;9.50;99.90;;;;;;4995483;28;20194;-79
2021/11/18 01:08:14;;;;;;;16.60;10.13;;;9.50;99.90;;;;;;5012840;28;20193;-80
2021/11/18 01:10:48;;;;;;;14.87;9.57;;;9.50;99.90;;;;;;5012763;28;20309;-81
2021/11/18 01:13:15;;;;;;;18.08;10.30;;;9.50;99.90;;;;;;4999536;28;20293;-81
2021/11/18 01:15:42;;;;;;;18.95;11.07;;;9.50;99.90;;;;;;4979468;28;20174;-82
2021/11/18 01:18:09;;;;;;;16.27;9.70;;;9.50;99.90;;;;;;4978402;28;20229;-81
2021/11/18 01:20:36;;;;;;;16.15;10.70;;;9.50;99.90;;;;;;4994942;28;20537;-81
2021/11/18 01:23:06;;;;;;;19.40;10.85;;;9.40;99.90;;;;;;4994876;28;20698;-81
2021/11/18 01:25:33;;;;;;;14.75;9.73;;;9.50;99.90;;;;;;4978641;28;20257;-82
2021/11/18 01:27:59;;;;;;;15.00;9.15;;;9.40;99.90;;;;;;4993863;28;20198;-80
2021/11/18 01:30:29;;;;;;;18.40;11.55;;;9.40;99.90;;;;;;4994365;28;20564;-81
2021/11/18 01:32:57;;;;;;;14.35;8.70;;;9.40;99.90;;;;;;4994670;28;20167;-81
2021/11/18 01:35:35;;;;;;;13.43;9.68;;;9.40;99.90;;;;;;4994778;28;20212;-81
2021/11/18 01:38:01;;;;;;;19.27;10.65;;;9.40;99.90;;;;;;4994431;28;20177;-81
2021/11/18 01:40:32;;;;;;;15.45;10.55;;;9.40;99.90;;;;;;4994918;28;20198;-80
2021/11/18 01:43:09;;;;;;;15.00;10.00;;;9.40;99.90;;;;;;4978913;28;20178;-81
2021/11/18 01:45:36;;;;;;;14.55;10.30;;;9.30;99.90;;;;;;4994939;28;20876;-81
2021/11/18 01:48:03;;;;;;;17.70;10.13;;;9.30;99.90;;;;;;4994072;28;20682;-82
2021/11/18 01:50:31;;;;;;;18.55;10.68;;;9.30;99.90;;;;;;4999709;28;20178;-82
2021/11/18 01:52:59;;;;;;;17.55;11.02;;;9.30;99.90;;;;;;5011943;28;20189;-81
2021/11/18 01:55:27;;;;;;;15.00;10.25;;;9.30;99.90;;;;;;4994981;28;20163;-82
2021/11/18 01:57:54;;;;;;;14.15;10.38;;;9.20;99.90;;;;;;4992056;28;20178;-81
2021/11/18 02:00:59;;;;;;;17.70;10.52;;;9.30;99.90;;;;;;5000290;28;20174;-81
2021/11/18 02:03:27;;;;;;;14.75;9.70;;;9.20;99.90;;;;;;4994449;28;20202;-81
2021/11/18 02:06:38;;;;;;;16.67;10.25;;;9.20;99.90;;;;;;5011287;28;20188;-81
2021/11/18 02:09:11;;;;;;;17.13;10.20;;;9.20;99.90;;;;;;4994279;28;20606;-81
2021/11/18 02:11:42;;;;;;;18.42;10.38;;;9.10;99.90;;;;;;4978189;28;20178;-81
2021/11/18 02:14:13;;;;;;;14.63;10.77;;;9.10;99.90;;;;;;4993785;28;20206;-81
2021/11/18 02:16:41;;;;;;;15.32;9.98;;;9.10;99.90;;;;;;4993897;28;20542;-81
2021/11/18 02:19:09;;;;;;;17.98;9.75;;;9.10;99.90;;;;;;4994189;28;20174;-81
2021/11/18 02:21:38;;;;;;;13.00;9.85;;;9.00;99.90;;;;;;4992843;28;20201;-81
2021/11/18 02:24:08;;;;;;;22.98;10.00;;;9.00;99.90;;;;;;4966339;28;20248;-81
2021/11/18 02:26:35;;;;;;;14.82;9.35;;;9.00;99.90;;;;;;4992229;28;20878;-81
2021/11/18 02:29:06;;;;;;;14.68;9.38;;;9.00;99.90;;;;;;4995744;28;20602;-80
2021/11/18 02:31:45;;;;;;;18.40;9.70;;;9.00;99.90;;;;;;4994423;28;20190;-81
2021/11/18 02:34:17;;;;;;;15.82;9.07;;;9.00;99.90;;;;;;4993634;28;20190;-81
2021/11/18 02:36:43;;;;;;;15.77;9.00;;;9.00;99.90;;;;;;5011313;28;20285;-81
2021/11/18 02:39:10;;;;;;;17.15;9.68;;;9.00;99.90;;;;;;5011582;28;20520;-81
2021/11/18 02:41:37;;;;;;;16.33;9.50;;;8.90;99.90;;;;;;4997807;28;20174;-82
2021/11/18 02:44:05;;;;;;;18.95;10.02;;;8.90;99.90;;;;;;5002225;28;20195;-82
2021/11/18 02:46:32;;;;;;;18.27;10.05;;;8.90;99.90;;;;;;4997669;28;20240;-81
2021/11/18 02:48:58;;;;;;;19.00;8.43;;;8.90;99.90;;;;;;4998228;28;20197;-81
2021/11/18 02:51:26;;;;;;;13.63;8.43;;;8.80;99.90;;;;;;4997282;28;20185;-82
2021/11/18 02:53:56;;;;;;;15.18;8.57;;;8.90;99.90;;;;;;4997507;28;20194;-81
2021/11/18 02:56:24;;;;;;;13.25;7.63;;;8.90;99.90;;;;;;4997322;28;20240;-81
2021/11/18 02:58:50;;;;;;;12.95;8.20;;;8.80;99.90;;;;;;4997778;28;20236;-81
2021/11/18 03:01:26;;;;;;;19.35;9.50;;;8.80;99.90;;;;;;4997701;28;20246;-81
2021/11/18 03:03:55;;;;;;;17.35;10.70;;;8.80;99.90;;;;;;4999495;28;20205;-81
2021/11/18 03:06:21;;;;;;;16.85;9.05;;;8.80;99.90;;;;;;4999371;28;20527;-81
2021/11/18 03:08:47;;;;;;;13.85;8.35;;;8.80;99.90;;;;;;4997595;28;20704;-81
2021/11/18 03:11:15;;;;;;;14.73;8.70;;;8.80;99.90;;;;;;4997441;28;20178;-81
2021/11/18 03:13:41;;;;;;;20.25;8.85;;;8.70;99.90;;;;;;4997005;28;20205;-82
2021/11/18 03:16:09;;;;;;;20.70;9.13;;;8.70;99.90;;;;;;4997272;28;20170;-82
2021/11/18 03:18:36;;;;;;;12.50;8.48;;;8.70;99.90;;;;;;4997512;28;20257;-81
2021/11/18 03:21:07;;;;;;;19.00;10.00;;;8.70;99.90;;;;;;4997308;28;20171;-82
2021/11/18 03:23:36;;;;;;;13.65;8.07;;;8.70;99.90;;;;;;4996512;28;20190;-81
2021/11/18 03:26:10;;;;;;;14.88;9.50;;;8.70;99.90;;;;;;4996922;28;20182;-82
2021/11/18 03:28:36;;;;;;;14.45;7.80;;;8.70;99.90;;;;;;5014630;28;20198;-82
2021/11/18 03:31:06;;;;;;;16.73;8.02;;;8.60;99.90;;;;;;4997273;28;20304;-81
2021/11/18 03:33:36;;;;;;;14.55;8.27;;;8.60;99.90;;;;;;4996783;28;20186;-81
2021/11/18 03:36:04;;;;;;;12.27;8.48;;;8.60;99.90;;;;;;4996620;28;20253;-81
2021/11/18 03:38:31;;;;;;;17.15;8.15;;;8.50;99.90;;;;;;4997420;28;20305;-81
2021/11/18 03:41:18;;;;;;;10.93;6.57;;;8.50;99.90;;;;;;5001805;28;20209;-81
2021/11/18 03:43:52;;;;;;;13.05;8.60;;;8.50;99.90;;;;;;4997066;28;20230;-81
2021/11/18 03:46:22;;;;;;;16.92;9.13;;;8.50;99.90;;;;;;4996336;28;20269;-81
2021/11/18 03:48:50;;;;;;;17.25;8.40;;;8.50;99.90;;;;;;4996920;28;20842;-81
2021/11/18 03:51:16;;;;;;;13.60;7.45;;;8.50;99.90;;;;;;4995548;28;20178;-82
2021/11/18 03:53:43;;;;;;;16.58;8.85;;;8.40;99.90;;;;;;4996209;28;20324;-81
2021/11/18 03:56:20;;;;;;;12.48;7.75;;;8.40;99.90;;;;;;4995743;28;20169;-81
2021/11/18 03:58:46;;;;;;;13.68;8.32;;;8.40;99.90;;;;;;4996811;28;20178;-81
2021/11/18 04:01:15;;;;;;;16.15;7.28;;;8.40;99.90;;;;;;4996647;28;20178;-81
2021/11/18 04:03:41;;;;;;;13.98;8.63;;;8.40;99.90;;;;;;4996439;28;20225;-81
2021/11/18 04:06:09;;;;;;;12.53;7.67;;;8.30;99.90;;;;;;5053003;22;20269;-77
2021/11/18 04:08:52;;;;;;;13.23;7.07;;;8.30;99.90;;;;;;4974940;28;20598;-78
2021/11/18 04:11:18;;;;;;;13.30;7.60;;;8.30;99.90;;;;;;4991549;28;20198;-76
2021/11/18 04:13:43;;;;;;;18.10;7.10;;;8.30;99.90;;;;;;5002882;28;20171;-77
2021/11/18 04:16:09;;;;;;;13.67;7.70;;;8.30;99.90;;;;;;4984821;28;20651;-78
2021/11/18 04:18:35;;;;;;;11.20;6.47;;;8.30;99.90;;;;;;4977459;28;20535;-77
2021/11/18 04:21:02;;;;;;;15.95;7.60;;;8.20;99.90;;;;;;4977593;28;20606;-78
2021/11/18 04:23:30;;;;;;;14.27;8.07;;;8.20;99.90;;;;;;4976924;28;20180;-77
2021/11/18 04:25:55;;;;;;;17.20;7.95;;;8.20;99.90;;;;;;4977528;28;20669;-78
2021/11/18 04:28:22;;;;;;;14.32;7.38;;;8.20;99.90;;;;;;4983584;28;20571;-78
2021/11/18 04:30:58;;;;;;;16.88;7.20;;;8.20;99.90;;;;;;4978443;28;20314;-78
2021/11/18 04:33:29;;;;;;;11.48;6.80;;;8.20;99.90;;;;;;4977864;28;20179;-78
2021/11/18 04:35:56;;;;;;;11.25;6.68;;;8.10;99.90;;;;;;4977108;28;20195;-78
2021/11/18 04:38:25;;;;;;;11.50;7.15;;;8.10;99.90;;;;;;4961172;28;20183;-78
2021/11/18 04:40:52;;;;;;;12.70;6.50;;;8.10;99.90;;;;;;4978319;28;20210;-78
2021/11/18 04:43:19;;;;;;;11.48;7.10;;;8.10;99.90;;;;;;4977817;28;20643;-78
2021/11/18 04:45:48;;;;;;;13.10;6.45;;;8.10;99.90;;;;;;4977892;28;20203;-77
2021/11/18 04:48:14;;;;;;;9.77;6.23;;;8.10;99.90;;;;;;4977524;28;20649;-77
2021/11/18 04:50:41;;;;;;;9.48;5.90;;;8.10;99.90;;;;;;4961673;28;20975;-77
2021/11/18 04:53:07;;;;;;;15.00;6.38;;;8.10;99.90;;;;;;4978505;28;20287;-78
2021/11/18 04:55:36;;;;;;;13.27;6.45;;;8.10;99.90;;;;;;4976486;28;20282;-77
2021/11/18 04:58:03;;;;;;;11.32;5.63;;;8.10;99.90;;;;;;4959898;28;20179;-78
2021/11/18 05:00:44;;;;;;;12.88;6.35;;;8.10;99.90;;;;;;4975990;28;20259;-79
2021/11/18 05:03:11;;;;;;;18.13;6.82;;;8.10;99.90;;;;;;4993722;28;20167;-78
2021/11/18 05:05:37;;;;;;;11.93;5.65;;;8.10;99.90;;;;;;4983807;28;20294;-77
2021/11/18 05:08:04;;;;;;;12.70;5.67;;;8.00;99.90;;;;;;4993282;28;20289;-77
2021/11/18 05:10:30;;;;;;;14.30;6.97;;;8.00;99.90;;;;;;4959828;28;20182;-78
2021/11/18 05:12:56;;;;;;;9.47;6.33;;;8.00;99.90;;;;;;4993306;28;20542;-77
2021/11/18 05:15:30;;;;;;;9.95;5.60;;;8.00;99.90;;;;;;4976090;28;20598;-78
2021/11/18 05:17:56;;;;;;;13.73;5.75;;;8.00;99.90;;;;;;4975212;28;20177;-77
2021/11/18 05:20:23;;;;;;;9.07;5.70;;;7.90;99.90;;;;;;4959869;28;20527;-78
2021/11/18 05:22:50;;;;;;;12.32;6.15;;;7.90;99.90;;;;;;4992741;28;20684;-77
2021/11/18 05:25:21;;;;;;;10.10;6.35;;;7.90;99.90;;;;;;4975683;28;20250;-78
2021/11/18 05:27:47;;;;;;;13.90;6.30;;;7.90;99.90;;;;;;4975066;28;20272;-77
2021/11/18 05:30:14;;;;;;;8.23;5.63;;;7.90;99.90;;;;;;4975668;28;20549;-77
2021/11/18 05:32:41;;;;;;;8.93;5.57;;;7.90;99.90;;;;;;4974921;28;20258;-77
2021/11/18 05:35:29;;;;;;;10.15;4.95;;;7.90;99.90;;;;;;4992167;28;20206;-76
2021/11/18 05:37:56;;;;;;;9.23;6.10;;;7.90;99.90;;;;;;4976126;28;20175;-76
2021/11/18 05:40:24;;;;;;;11.15;5.97;;;7.90;99.90;;;;;;4976965;28;20171;-76
2021/11/18 05:42:52;;;;;;;10.40;6.70;;;7.90;99.90;;;;;;4978610;28;20253;-77
2021/11/18 05:45:24;;;;;;;10.60;6.28;;;7.90;99.90;;;;;;4960524;28;20278;-77
2021/11/18 05:48:06;;;;;;;18.52;8.35;;;7.90;99.90;;;;;;4959695;28;20281;-77
2021/11/18 05:50:34;;;;;;;15.05;6.03;;;8.00;99.90;;;;;;4975388;28;20229;-77
2021/11/18 05:53:02;;;;;;;14.43;7.00;;;8.00;99.90;;;;;;4975509;28;20544;-77
2021/11/18 05:55:32;;;;;;;11.98;5.82;;;8.00;99.90;;;;;;4975796;28;20215;-77
2021/11/18 05:57:58;;;;;;;13.15;6.85;;;8.10;99.90;;;;;;4975743;28;20253;-77
2021/11/18 06:00:27;;;;;;;12.57;7.10;;;8.10;99.90;;;;;;4975238;28;20198;-77
2021/11/18 06:02:54;;;;;;;14.65;6.20;;;8.20;99.90;;;;;;4975783;28;20198;-76
2021/11/18 06:05:25;;;;;;;8.82;5.03;;;8.20;99.90;;;;;;4959651;28;20604;-76
2021/11/18 06:07:53;;;;;;;10.00;5.22;;;8.20;99.90;;;;;;4975189;28;20211;-76
2021/11/18 06:10:21;;;;;;;12.18;6.97;;;8.20;99.90;;;;;;4974944;28;20175;-76
2021/11/18 06:12:47;;;;;;;10.00;6.15;;;8.30;99.90;;;;;;4975121;28;20171;-76
2021/11/18 06:15:24;;;;;;;13.07;5.25;;;8.30;99.90;;;;;;4974632;28;20199;-76
2021/11/18 06:17:51;;;;;;;7.60;5.00;;;8.40;99.90;;;;;;4978828;28;20178;-77
2021/11/18 06:20:17;;;;;;;9.32;4.68;;;8.40;99.90;;;;;;4976817;28;20174;-77
2021/11/18 06:22:44;;;;;;;12.03;5.90;;;8.50;99.90;;;;;;4958220;28;20171;-77
2021/11/18 06:25:13;;;;;;;12.85;5.40;;;8.50;99.90;;;;;;4974767;28;20601;-77
2021/11/18 06:27:42;;;;;;;11.13;5.68;;;8.50;99.90;;;;;;4973891;28;20190;-78
2021/11/18 06:30:13;;;;;;;9.85;5.20;;;8.50;99.90;;;;;;4974742;28;20239;-78
2021/11/18 06:32:39;;;;;;;7.53;5.30;;;8.50;99.90;;;;;;4991524;28;20167;-78
2021/11/18 06:35:06;;;;;;;9.50;5.27;;;8.50;99.90;;;;;;4974671;28;20267;-80
2021/11/18 06:37:32;;;;;;;8.82;4.80;;;8.50;99.90;;;;;;4974250;28;20575;-76
2021/11/18 06:39:57;;;;;;;5.53;4.60;;;8.60;99.90;;;;;;4974812;28;20175;-76
2021/11/18 06:42:27;;;;;;;11.15;5.22;;;8.60;99.90;;;;;;4974531;28;20570;-79
2021/11/18 06:45:02;;;;;;;12.38;5.30;;;8.60;99.90;;;;;;4974443;28;20281;-78
2021/11/18 06:47:29;;;;;;;12.05;5.47;;;8.60;99.90;;;;;;4973806;28;20183;-78
2021/11/18 06:49:55;;;;;;;8.23;4.57;;;8.60;99.90;;;;;;4974804;28;20230;-77
2021/11/18 06:52:21;;;;;;;13.02;5.40;;;8.60;99.90;;;;;;4974706;28;20203;-79
2021/11/18 06:54:49;;;;;;;10.30;4.63;;;8.60;99.90;;;;;;4976405;28;20261;-78
2021/11/18 06:57:17;;;;;;;8.80;4.07;;;8.70;99.90;;;;;;4974481;28;21130;-77
2021/11/18 06:59:44;;;;;;;7.53;5.00;;;8.70;99.90;;;;;;4974031;28;20262;-77
2021/11/18 07:02:10;;;;;;;11.50;5.68;;;8.70;99.90;;;;;;4974881;28;20175;-77
2021/11/18 07:04:36;;;;;;;11.98;5.47;;;8.70;99.90;;;;;;4991337;28;20213;-77
2021/11/18 07:07:02;;;;;;;10.57;4.90;;;8.80;99.90;;;;;;4973929;28;20258;-77
2021/11/18 07:09:29;;;;;;;10.35;5.75;;;8.90;99.90;;;;;;4960355;28;21181;-76
2021/11/18 07:12:19;;;;;;;9.68;4.97;;;8.90;99.90;;;;;;4993376;28;20266;-75
2021/11/18 07:14:46;;;;;;;11.25;6.03;;;9.00;99.90;;;;;;4973045;28;20210;-76
2021/11/18 07:17:51;;;;;;;11.85;4.80;;;9.10;99.90;;;;;;4962816;28;20868;-77
2021/11/18 07:20:20;;;;;;;9.68;5.18;;;9.10;99.90;;;;;;4993154;28;20170;-76
2021/11/18 07:22:47;;;;;;;11.50;4.95;;;9.20;99.90;;;;;;4977264;28;20185;-78
2021/11/18 07:25:25;;;;;;;8.82;5.45;;;9.30;99.90;;;;;;4990189;28;20249;-77
2021/11/18 07:27:54;;;;;;;7.43;4.75;;;9.40;99.90;;;;;;4959654;28;20286;-77
2021/11/18 07:30:25;;;;;;;10.82;5.70;;;9.40;99.90;;;;;;4977184;28;20159;-76
2021/11/18 07:32:53;;;;;;;8.57;6.45;;;9.40;99.90;;;;;;4999189;28;20579;-76
2021/11/18 07:35:23;;;;;;;6.03;4.55;;;9.40;99.90;;;;;;4977129;28;20187;-77
2021/11/18 07:37:49;;;;;;;10.27;5.50;;;9.50;99.90;;;;;;4976058;28;20549;-77
2021/11/18 07:40:18;;;;;;;13.20;6.25;;;9.50;99.90;;;;;;4977161;28;20185;-77
2021/11/18 07:42:47;;;;;;;12.70;5.50;;;9.60;99.90;;;;;;4972767;28;21362;-76
2021/11/18 07:45:33;;;;;;;14.05;5.03;;;9.60;99.90;;;;;;4994356;28;20199;-77
2021/11/18 07:48:17;;;;;;;11.27;5.70;;;9.60;99.90;;;;;;4976259;28;20293;-76
2021/11/18 07:50:45;;;;;;;9.52;6.15;;;9.60;99.90;;;;;;4976102;28;20254;-76
2021/11/18 07:53:14;;;;;;;12.90;4.95;;;9.60;99.90;;;;;;4964389;28;20175;-76
2021/11/18 07:55:43;;;;;;;9.95;4.90;;;9.60;99.90;;;;;;4977617;28;20340;-77
2021/11/18 07:58:09;;;;;;;7.65;4.90;;;9.60;99.90;;;;;;4975550;28;20254;-77
2021/11/18 08:00:35;;;;;;;8.33;5.10;;;9.60;99.90;;;;;;4966238;28;20595;-77
2021/11/18 08:03:15;;;;;;;8.55;5.10;;;9.60;99.90;;;;;;4979107;28;20583;-77
2021/11/18 08:06:01;;;;;;;8.45;4.45;;;9.70;99.90;;;;;;5000625;28;20207;-77
2021/11/18 08:08:27;;;;;;;7.40;5.30;;;9.70;99.90;;;;;;4977421;28;20674;-77
2021/11/18 08:10:53;;;;;;;8.18;5.47;;;9.70;99.90;;;;;;4999184;28;20202;-77
2021/11/18 08:13:20;;;;;;;9.77;4.40;;;9.80;99.90;;;;;;4976342;28;20515;-77
2021/11/18 08:15:46;;;;;;;9.80;4.40;;;9.90;99.90;;;;;;4975659;28;20281;-77
2021/11/18 08:18:12;;;;;;;8.40;4.67;;;10.00;99.90;;;;;;4960445;28;20766;-76
2021/11/18 08:20:39;;;;;;;11.32;5.10;;;10.10;99.90;;;;;;4975851;28;21172;-77
2021/11/18 08:23:06;;;;;;;9.93;4.25;;;10.20;99.90;;;;;;4976010;28;20682;-77
2021/11/18 08:25:34;;;;;;;9.23;4.65;;;10.30;99.90;;;;;;4976547;28;20199;-77
2021/11/18 08:28:01;;;;;;;14.57;6.07;;;10.30;99.90;;;;;;4978923;28;20210;-76
2021/11/18 08:30:30;;;;;;;9.88;4.95;;;10.30;99.90;;;;;;4995586;28;20166;-77
2021/11/18 08:32:59;;;;;;;8.23;5.25;;;10.40;99.90;;;;;;4979039;28;20798;-76
2021/11/18 08:35:32;;;;;;;9.68;4.10;;;10.40;99.90;;;;;;4995681;28;20240;-77
2021/11/18 08:38:04;;;;;;;10.77;4.63;;;10.50;99.90;;;;;;4962442;28;20545;-76
2021/11/18 08:40:34;;;;;;;8.30;4.75;;;10.50;99.90;;;;;;4995796;28;20170;-76
2021/11/18 08:43:03;;;;;;;8.30;4.32;;;10.60;99.90;;;;;;4962992;28;20182;-77
2021/11/18 08:45:31;;;;;;;10.20;5.25;;;10.60;99.90;;;;;;4996625;28;20193;-75
2021/11/18 08:47:57;;;;;;;8.85;5.38;;;10.70;99.90;;;;;;4999393;28;20236;-77
2021/11/18 08:50:24;;;;;;;10.60;4.95;;;10.80;99.90;;;;;;4995357;28;20587;-76
2021/11/18 08:52:53;;;;;;;9.18;5.45;;;10.80;99.90;;;;;;4995599;28;20520;-82
2021/11/18 08:55:24;;;;;;;12.10;5.03;;;10.90;99.90;;;;;;5013275;28;20535;-82
2021/11/18 08:57:52;;;;;;;11.20;4.03;;;11.00;99.90;;;;;;4996161;28;20566;-83
2021/11/18 09:00:40;;;;;;;9.27;4.15;;;11.10;99.90;;;;;;4987363;28;20164;-82
2021/11/18 09:03:29;;;;;;;8.23;3.85;;;11.20;99.90;;;;;;4976110;28;20530;-83
2021/11/18 09:05:56;;;;;;;6.65;4.95;;;11.30;99.90;;;;;;4975406;28;20221;-82
2021/11/18 09:08:24;;;;;;;12.38;6.38;;;11.40;99.90;;;;;;4975899;28;20218;-82
2021/11/18 09:10:58;;;;;;;20.13;6.63;;;11.60;99.90;;;;;;4976018;28;20175;-81
2021/11/18 09:13:24;;;;;;;11.00;6.65;;;11.70;99.90;;;;;;4975628;28;20266;-80
2021/11/18 09:15:54;;;;;;;5.75;3.90;;;11.80;99.90;;;;;;4975160;28;20187;-81
2021/11/18 09:18:22;;;;;;;8.77;3.63;;;12.00;99.90;;;;;;4976905;28;20182;-81
2021/11/18 09:20:53;;;;;;;7.35;3.92;;;12.10;99.90;;;;;;4976029;28;20163;-81
2021/11/18 09:23:23;;;;;;;13.13;5.07;;;12.10;99.90;;;;;;4980585;28;20186;-81
2021/11/18 09:25:52;;;;;;;12.63;6.55;;;12.30;99.90;;;;;;4976624;28;20195;-82
2021/11/18 09:28:21;;;;;;;12.82;7.80;;;12.50;99.90;;;;;;4960052;28;20222;-82
2021/11/18 09:31:01;;;;;;;14.43;5.05;;;12.60;99.90;;;;;;4975297;28;20213;-81
2021/11/18 09:33:28;;;;;;;8.43;5.18;;;12.80;99.90;;;;;;4975178;28;20163;-82
2021/11/18 09:36:00;;;;;;;7.70;4.50;;;13.00;99.90;;;;;;4974688;28;20195;-81
2021/11/18 09:38:31;;;;;;;14.80;5.67;;;13.10;99.90;;;;;;4975426;28;20640;-81
2021/11/18 09:41:19;;;;;;;8.43;3.77;;;13.20;99.90;;;;;;4959379;28;20570;-82
2021/11/18 09:44:15;;;;;;;9.60;4.27;;;13.30;99.90;;;;;;4974843;28;20579;-82
2021/11/18 09:47:23;;;;;;;10.07;4.10;;;13.40;99.90;;;;;;4958877;28;21032;-81
2021/11/18 09:50:09;;;;;;;8.53;3.97;;;13.50;99.90;;;;;;4974350;28;20577;-83
2021/11/18 09:53:27;;;;;;;8.93;3.67;;;13.50;99.90;;;;;;4974379;28;20628;-81
2021/11/18 09:56:28;;;;;;;12.03;4.47;;;13.50;99.90;;;;;;4974229;28;20685;-80
2021/11/18 09:59:22;;;;;;;8.40;3.33;;;13.50;99.90;;;;;;4974979;28;20585;-81
2021/11/18 10:02:29;;;;;;;4.93;2.80;;;13.50;99.90;;;;;;4982519;28;20952;-81
2021/11/18 10:05:07;;;;;;;7.40;2.90;;;13.50;99.90;;;;;;4974314;28;20613;-81
2021/11/18 10:07:50;;;;;;;10.67;5.10;;;13.50;99.90;;;;;;4974699;28;20592;-81
2021/11/18 10:10:24;;;;;;;10.83;3.50;;;13.50;99.90;;;;;;4974581;28;20567;-82
2021/11/18 10:13:25;;;;;;;12.87;3.57;;;13.60;99.90;;;;;;4975360;28;20653;-83
2021/11/18 10:16:23;;;;;;;5.87;3.20;;;13.70;99.90;;;;;;4974175;28;20688;-82
2021/11/18 10:18:52;;;;;;;8.57;3.60;;;13.70;99.90;;;;;;4958733;28;20657;-83
2021/11/18 10:21:41;;;;;;;10.77;3.80;;;13.70;99.90;;;;;;4974384;28;20586;-82
2021/11/18 10:24:14;;;;;;;8.30;3.63;;;13.80;99.90;;;;;;4992137;28;20571;-82
2021/11/18 10:26:44;;;;;;;9.20;3.87;;;13.80;99.90;;;;;;4991652;28;20727;-81
2021/11/18 10:29:16;;;;;;;12.63;3.20;;;13.90;99.90;;;;;;4974868;28;20657;-81
2021/11/18 10:31:52;;;;;;;8.97;3.83;;;14.00;99.90;;;;;;4991879;28;21070;-81
2021/11/18 10:34:24;;;;;;;8.37;3.40;;;14.10;99.90;;;;;;4992415;28;20566;-81
2021/11/18 10:37:13;;;;;;;8.33;3.20;;;14.10;99.90;;;;;;4975161;28;20897;-82
2021/11/18 10:40:14;;;;;;;9.10;3.30;;;14.10;99.90;;;;;;4975908;28;20590;-82
2021/11/18 10:42:48;;;;;;;9.97;3.13;;;14.20;99.90;;;;;;4991936;28;20693;-81
2021/11/18 10:45:34;;;;;;;12.53;4.10;;;14.20;99.90;;;;;;4991598;28;20880;-81
2021/11/18 10:48:13;;;;;;;9.20;3.20;;;14.20;99.90;;;;;;4991630;28;20628;-81
2021/11/18 10:50:55;;;;;;;8.53;3.30;;;14.20;99.90;;;;;;4991842;28;20917;-82
2021/11/18 10:53:23;;;;;;;11.33;6.03;;;14.20;99.90;;;;;;4991733;28;20597;-81
2021/11/18 10:56:09;;;;;;;7.50;4.10;;;14.20;99.90;;;;;;4991476;28;20601;-81
2021/11/18 10:58:44;;;;;;;12.43;5.70;;;14.10;99.90;;;;;;4974850;28;20946;-81
2021/11/18 11:01:29;;;;;;;12.67;4.67;;;14.10;99.90;;;;;;5005440;28;20584;-83
2021/11/18 11:03:59;;;;;;;13.67;5.10;;;14.10;99.90;;;;;;4997651;28;21136;-83
2021/11/18 11:06:32;;;;;;;9.67;4.20;;;14.10;99.90;;;;;;5014518;28;20625;-84
2021/11/18 11:09:28;;;;;;;11.63;5.20;;;14.10;99.90;;;;;;4997781;28;20976;-83
2021/11/18 11:12:15;;;;;;;10.45;4.30;;;14.10;99.90;;;;;;5014839;28;20572;-83
2021/11/18 11:15:15;;;;;;;13.57;5.10;;;14.20;99.90;;;;;;5019315;28;20302;-84
2021/11/18 11:18:04;;;;;;;13.20;5.17;;;14.20;99.90;;;;;;5014217;28;20656;-83
2021/11/18 11:20:46;;;;;;;11.20;4.40;;;14.20;99.90;;;;;;4997786;28;20592;-82
2021/11/18 11:23:47;;;;;;;7.83;4.23;;;14.20;99.90;;;;;;5014487;28;20561;-83
2021/11/18 11:26:18;;;;;;;8.80;4.20;;;14.30;99.90;;;;;;4997247;28;20592;-83
2021/11/18 11:28:54;;;;;;;11.27;5.23;;;14.40;99.90;;;;;;4996674;28;20620;-85
2021/11/18 11:31:38;;;;;;;11.30;4.50;;;14.50;99.90;;;;;;5015007;28;20569;-83
2021/11/18 11:34:34;;;;;;;16.20;4.73;;;14.60;99.90;;;;;;4996873;28;20580;-81
2021/11/18 11:37:06;;;;;;;10.87;4.87;;;14.80;99.90;;;;;;5014013;28;21179;-82
2021/11/18 11:39:38;;;;;;;10.70;3.40;;;14.90;99.90;;;;;;5014695;28;20576;-82
2021/11/18 11:42:37;;;;;;;16.97;4.27;;;15.00;99.90;;;;;;5014655;28;20576;-82
2021/11/18 11:45:17;;;;;;;11.13;4.03;;;15.10;99.90;;;;;;4987345;28;20665;-81
2021/11/18 11:47:48;;;;;;;9.90;3.83;;;15.00;99.90;;;;;;4994858;28;20574;-82
2021/11/18 11:50:37;;;;;;;9.00;2.73;;;15.00;99.90;;;;;;4977575;28;20574;-83
2021/11/18 11:53:17;;;;;;;9.43;3.27;;;15.00;99.90;;;;;;4982476;28;21022;-82
2021/11/18 11:56:10;;;;;;;11.13;4.90;;;14.90;99.90;;;;;;4994880;28;20594;-83
2021/11/18 11:58:38;;;;;;;10.90;4.30;;;14.90;99.90;;;;;;4995130;28;20585;-82
2021/11/18 12:01:30;;;;;;;11.77;3.90;;;14.80;99.90;;;;;;4977299;28;20592;-83
2021/11/18 12:04:13;;;;;;;9.27;4.30;;;14.70;99.90;;;;;;4977570;28;20578;-83
2021/11/18 12:06:48;;;;;;;12.47;4.50;;;14.70;99.90;;;;;;4994257;28;20680;-84
2021/11/18 12:09:23;;;;;;;11.80;4.07;;;14.60;99.90;;;;;;4977437;28;20985;-83
2021/11/18 12:12:05;;;;;;;7.80;4.17;;;14.60;99.90;;;;;;4994307;28;20632;-83
2021/11/18 12:14:36;;;;;;;10.83;2.90;;;14.50;99.90;;;;;;4993709;28;20562;-83
2021/11/18 12:17:05;;;;;;;11.63;3.80;;;14.50;99.90;;;;;;4994099;28;21160;-83
2021/11/18 12:19:45;;;;;;;8.00;2.83;;;14.50;99.90;;;;;;4977678;28;20640;-84
2021/11/18 12:22:38;;;;;;;13.23;3.70;;;14.50;99.90;;;;;;4994364;28;21365;-84
2021/11/18 12:25:34;;;;;;;7.80;2.70;;;14.40;99.90;;;;;;4996187;28;20664;-83
2021/11/18 12:28:13;;;;;;;12.93;2.80;;;14.40;99.90;;;;;;4977552;28;20618;-83
2021/11/18 12:31:03;;;;;;;10.53;3.07;;;14.40;99.90;;;;;;4979590;28;20562;-83
2021/11/18 12:33:32;;;;;;;11.80;3.40;;;14.40;99.90;;;;;;4994582;28;20598;-83
2021/11/18 12:36:35;;;;;;;10.67;3.77;;;14.30;99.90;;;;;;4996050;28;20625;-82
2021/11/18 12:39:20;;;;;;;14.10;3.77;;;14.30;99.90;;;;;;5013205;28;20558;-81
2021/11/18 12:42:01;;;;;;;13.10;4.50;;;14.30;99.90;;;;;;4997283;28;20585;-82
2021/11/18 12:44:57;;;;;;;10.70;3.20;;;14.20;99.90;;;;;;5014943;28;20566;-82
2021/11/18 12:47:52;;;;;;;15.43;3.77;;;14.20;99.90;;;;;;4998229;28;20613;-82
2021/11/18 12:50:49;;;;;;;12.60;3.67;;;14.10;99.90;;;;;;4998010;28;20578;-84
2021/11/18 12:53:17;;;;;;;8.87;3.67;;;14.10;99.90;;;;;;4963755;28;20578;-83
2021/11/18 12:55:52;;;;;;;10.47;3.90;;;14.10;99.90;;;;;;4996371;28;20919;-84
2021/11/18 12:58:26;;;;;;;8.40;3.07;;;14.10;99.90;;;;;;4997686;28;20928;-82
2021/11/18 13:00:56;;;;;;;10.53;2.53;;;14.00;99.90;;;;;;4978279;28;20984;-82
2021/11/18 13:03:43;;;;;;;11.90;3.57;;;14.00;99.90;;;;;;4995749;28;20574;-83
2021/11/18 13:06:10;;;;;;;10.98;4.18;;;14.00;99.90;;;;;;4999108;28;20729;-84
2021/11/18 13:08:38;;;;;;;11.30;4.73;;;13.90;99.90;;;;;;4976157;28;20667;-83
2021/11/18 13:11:26;;;;;;;14.50;4.40;;;13.90;99.90;;;;;;4994021;28;20665;-83
2021/11/18 13:14:10;;;;;;;8.67;3.10;;;13.80;99.90;;;;;;4976038;28;20971;-83
2021/11/18 13:16:38;;;;;;;8.97;3.50;;;13.80;99.90;;;;;;4993500;28;20717;-82